createdAt,value
2022-10-22T00:01:59.016Z,7.60
2022-10-22T00:05:02.197Z,7.82
2022-10-22T00:08:05.128Z,7.55
2022-10-22T00:11:12.732Z,7.83
2022-10-22T00:14:16.288Z,7.90
2022-10-22T00:17:19.241Z,7.45
2022-10-22T00:20:22.927Z,8.95
2022-10-22T00:23:25.817Z,7.93
2022-10-22T00:26:28.741Z,7.27
2022-10-22T00:29:31.723Z,7.47
2022-10-22T00:32:34.597Z,7.32
2022-10-22T00:35:37.571Z,7.68
2022-10-22T00:38:40.488Z,7.45
2022-10-22T00:41:44.394Z,7.03
2022-10-22T00:45:12.084Z,7.03
2022-10-22T00:48:20.895Z,7.18
2022-10-22T00:51:25.505Z,6.90
2022-10-22T00:54:28.391Z,7.40
2022-10-22T00:57:31.266Z,6.90
2022-10-22T01:00:34.176Z,7.57
2022-10-22T01:03:37.058Z,7.25
2022-10-22T01:06:40.261Z,6.85
2022-10-22T01:09:46.049Z,6.88
2022-10-22T01:12:55.331Z,6.97
2022-10-22T01:16:07.410Z,6.47
2022-10-22T01:19:19.058Z,6.90
2022-10-22T01:22:52.879Z,7.47
2022-10-22T01:26:18.145Z,6.70
2022-10-22T01:29:28.020Z,6.50
2022-10-22T01:32:31.712Z,7.00
2022-10-22T01:35:42.489Z,6.63
2022-10-22T01:38:45.787Z,6.63
2022-10-22T01:41:48.705Z,6.90
2022-10-22T01:44:51.582Z,6.70
2022-10-22T01:48:26.870Z,6.30
2022-10-22T01:52:00.782Z,6.63
2022-10-22T01:55:12.665Z,6.47
2022-10-22T01:58:28.595Z,7.40
2022-10-22T02:01:57.474Z,5.97
2022-10-22T02:05:10.232Z,6.87
2022-10-22T02:08:20.899Z,6.28
2022-10-22T02:11:23.851Z,6.35
2022-10-22T02:14:27.388Z,6.50
2022-10-22T02:17:31.056Z,6.70
2022-10-22T02:20:35.009Z,6.30
2022-10-22T02:23:37.930Z,6.88
2022-10-22T02:27:00.365Z,6.93
2022-10-22T02:30:10.629Z,8.45
2022-10-22T02:33:34.583Z,6.63
2022-10-22T02:36:38.416Z,6.33
2022-10-22T02:39:41.304Z,7.13
2022-10-22T02:42:44.204Z,5.95
2022-10-22T02:45:47.419Z,7.05
2022-10-22T02:48:50.566Z,6.60
2022-10-22T02:51:53.489Z,6.90
2022-10-22T02:54:56.396Z,6.07
2022-10-22T02:57:59.280Z,6.72
2022-10-22T03:01:02.255Z,6.22
2022-10-22T03:04:05.330Z,6.50
2022-10-22T03:07:08.327Z,7.30
2022-10-22T03:10:11.882Z,6.88
2022-10-22T03:13:14.761Z,7.10
2022-10-22T03:16:17.656Z,6.55
2022-10-22T03:19:20.543Z,6.93
2022-10-22T03:22:27.825Z,6.77
2022-10-22T03:25:34.431Z,6.68
2022-10-22T03:28:37.524Z,6.55
2022-10-22T03:31:40.435Z,6.75
2022-10-22T03:34:43.319Z,7.90
2022-10-22T03:37:46.218Z,6.67
2022-10-22T03:40:49.142Z,6.75
2022-10-22T03:43:53.265Z,6.72
2022-10-22T03:46:58.713Z,7.05
2022-10-22T03:50:05.765Z,6.73
2022-10-22T03:53:10.609Z,6.63
2022-10-22T03:56:13.798Z,6.30
2022-10-22T03:59:16.677Z,7.35
2022-10-22T04:02:19.565Z,6.75
2022-10-22T04:05:22.475Z,6.57
2022-10-22T04:08:25.356Z,6.87
2022-10-22T04:11:28.291Z,6.85
2022-10-22T04:14:31.212Z,6.70
2022-10-22T04:17:37.473Z,6.95
2022-10-22T04:20:41.999Z,7.10
2022-10-22T04:23:46.078Z,7.20
2022-10-22T04:26:49.031Z,6.72
2022-10-22T04:29:52.362Z,6.97
2022-10-22T04:32:55.259Z,6.82
2022-10-22T04:35:58.146Z,6.33
2022-10-22T04:39:01.817Z,6.47
2022-10-22T04:42:04.985Z,7.25
2022-10-22T04:45:08.468Z,8.40
2022-10-22T04:48:11.554Z,7.55
2022-10-22T04:51:16.244Z,8.83
2022-10-22T04:54:19.130Z,10.23
2022-10-22T04:57:22.010Z,10.02
2022-10-22T05:00:24.886Z,10.30
2022-10-22T05:03:27.885Z,9.15
2022-10-22T05:06:31.370Z,8.50
2022-10-22T05:09:34.286Z,9.33
2022-10-22T05:12:37.372Z,12.10
2022-10-22T05:15:40.270Z,12.60
2022-10-22T05:18:44.538Z,10.93
2022-10-22T05:21:47.458Z,10.77
2022-10-22T05:24:50.344Z,11.13
2022-10-22T05:27:55.231Z,10.40
2022-10-22T05:31:00.845Z,10.65
2022-10-22T05:34:03.730Z,10.63
2022-10-22T05:37:06.633Z,10.83
2022-10-22T05:40:19.244Z,10.93
2022-10-22T05:43:29.772Z,10.07
2022-10-22T05:46:35.165Z,10.48
2022-10-22T05:49:38.146Z,11.05
2022-10-22T05:52:41.347Z,10.87
2022-10-22T05:55:44.529Z,12.00
2022-10-22T05:58:47.776Z,11.30
2022-10-22T06:01:50.865Z,12.23
2022-10-22T06:04:53.878Z,13.32
2022-10-22T06:07:56.814Z,13.40
2022-10-22T06:10:59.693Z,13.73
2022-10-22T06:14:03.001Z,13.27
2022-10-22T06:17:05.891Z,12.18
2022-10-22T06:20:09.581Z,12.05
2022-10-22T06:23:12.605Z,13.23
2022-10-22T06:26:17.808Z,11.07
2022-10-22T06:29:20.861Z,10.35
2022-10-22T06:32:23.786Z,9.65
2022-10-22T06:35:26.659Z,9.15
2022-10-22T06:38:29.554Z,8.50
2022-10-22T06:41:32.470Z,8.93
2022-10-22T06:44:35.627Z,9.70
2022-10-22T06:47:38.927Z,9.95
2022-10-22T06:50:42.089Z,9.07
2022-10-22T06:53:45.011Z,8.60
2022-10-22T06:56:47.922Z,8.10
2022-10-22T06:59:50.809Z,7.78
2022-10-22T07:02:57.649Z,8.07
2022-10-22T07:06:03.214Z,7.45
2022-10-22T07:09:06.187Z,8.47
2022-10-22T07:12:09.233Z,10.30
2022-10-22T07:15:12.270Z,9.05
2022-10-22T07:18:15.300Z,8.07
2022-10-22T07:21:19.080Z,9.75
2022-10-22T07:24:21.977Z,8.63
2022-10-22T07:27:24.869Z,8.27
2022-10-22T07:30:27.775Z,8.20
2022-10-22T07:33:30.666Z,8.40
2022-10-22T07:36:33.672Z,7.95
2022-10-22T07:39:36.656Z,8.77
2022-10-22T07:42:39.559Z,8.23
2022-10-22T07:45:42.538Z,7.65
2022-10-22T07:48:45.471Z,7.55
2022-10-22T07:51:48.391Z,8.18
2022-10-22T07:54:51.288Z,8.13
2022-10-22T07:57:54.262Z,8.50
2022-10-22T08:00:58.193Z,8.80
2022-10-22T08:04:01.131Z,9.48
2022-10-22T08:07:04.142Z,9.75
2022-10-22T08:10:07.632Z,9.00
2022-10-22T08:13:10.644Z,8.70
2022-10-22T08:16:13.778Z,9.90
2022-10-22T08:19:18.892Z,9.45
2022-10-22T08:22:21.784Z,9.63
2022-10-22T08:25:24.823Z,10.33
2022-10-22T08:28:29.600Z,19.17
2022-10-22T08:31:32.638Z,9.95
2022-10-22T08:34:35.610Z,9.85
2022-10-22T08:37:38.758Z,10.30
2022-10-22T08:40:42.406Z,10.20
2022-10-22T08:44:12.627Z,9.93
2022-10-22T08:47:25.515Z,10.95
2022-10-22T08:50:36.202Z,10.13
2022-10-22T08:54:07.066Z,9.75
2022-10-22T08:57:13.562Z,10.93
2022-10-22T09:00:21.098Z,9.97
2022-10-22T09:03:35.829Z,9.98
2022-10-22T09:06:38.794Z,12.95
2022-10-22T09:09:46.729Z,18.45
2022-10-22T09:12:50.037Z,113.23
2022-10-22T09:16:01.488Z,47.20
2022-10-22T09:19:13.567Z,17.83
2022-10-22T09:22:25.674Z,11.18
2022-10-22T09:25:29.878Z,9.75
2022-10-22T09:28:32.815Z,10.57
2022-10-22T09:31:35.711Z,10.10
2022-10-22T09:34:38.782Z,10.35
2022-10-22T09:37:49.772Z,17.55
2022-10-22T09:40:56.505Z,14.60
2022-10-22T09:43:59.562Z,10.50
2022-10-22T09:47:42.891Z,10.20
2022-10-22T09:50:48.446Z,10.73
2022-10-22T09:54:01.905Z,10.98
2022-10-22T09:57:12.398Z,11.20
2022-10-22T10:00:19.109Z,11.97
2022-10-22T10:03:31.064Z,12.83
2022-10-22T10:06:34.826Z,12.52
2022-10-22T10:09:37.751Z,10.80
2022-10-22T10:12:55.212Z,11.40
2022-10-22T10:16:07.312Z,11.37
2022-10-22T10:19:50.635Z,12.57
2022-10-22T10:23:14.944Z,12.20
2022-10-22T10:26:41.186Z,12.23
2022-10-22T10:30:05.357Z,12.30
2022-10-22T10:33:30.988Z,13.40
2022-10-22T10:36:46.657Z,13.03
2022-10-22T10:40:20.851Z,12.95
2022-10-22T10:43:36.981Z,13.13
2022-10-22T10:47:09.819Z,34.65
2022-10-22T10:50:27.943Z,13.10
2022-10-22T10:53:42.875Z,11.50
2022-10-22T10:57:00.475Z,15.10
2022-10-22T11:00:12.455Z,34.10
2022-10-22T11:03:56.344Z,25.00
2022-10-22T11:07:11.091Z,18.37
2022-10-22T11:10:38.851Z,12.70
2022-10-22T11:13:49.771Z,14.40
2022-10-22T11:16:53.945Z,15.45
2022-10-22T11:20:28.107Z,12.13
2022-10-22T11:23:35.908Z,11.27
2022-10-22T11:26:55.677Z,12.13
2022-10-22T11:30:11.823Z,14.82
2022-10-22T11:33:18.737Z,11.82
2022-10-22T11:36:22.713Z,11.85
2022-10-22T11:39:54.319Z,11.90
2022-10-22T11:43:10.134Z,12.73
2022-10-22T11:46:15.894Z,12.85
2022-10-22T11:49:22.407Z,11.48
2022-10-22T11:52:28.214Z,12.90
2022-10-22T11:55:51.429Z,11.93
2022-10-22T11:58:55.084Z,12.40
2022-10-22T12:01:58.001Z,13.25
2022-10-22T12:05:40.108Z,12.45
2022-10-22T12:08:49.143Z,11.75
2022-10-22T12:11:52.159Z,12.43
2022-10-22T12:14:59.314Z,12.90
2022-10-22T12:18:03.988Z,16.83
2022-10-22T12:21:06.959Z,13.20
2022-10-22T12:24:14.085Z,12.45
2022-10-22T12:27:43.458Z,13.33
2022-10-22T12:30:46.662Z,13.07
2022-10-22T12:33:55.720Z,12.88
2022-10-22T12:36:58.658Z,13.30
2022-10-22T12:40:01.560Z,13.35
2022-10-22T12:43:20.183Z,12.20
2022-10-22T12:46:23.110Z,12.47
2022-10-22T12:49:31.931Z,13.38
2022-10-22T12:52:34.843Z,13.20
2022-10-22T12:55:39.298Z,14.23
2022-10-22T12:58:53.246Z,13.97
2022-10-22T13:01:56.405Z,14.50
2022-10-22T13:05:27.320Z,14.15
2022-10-22T13:08:30.287Z,16.20
2022-10-22T13:11:48.398Z,15.70
2022-10-22T13:14:51.307Z,14.10
2022-10-22T13:18:03.741Z,14.87
2022-10-22T13:21:20.416Z,12.88
2022-10-22T13:24:24.323Z,13.65
2022-10-22T13:27:30.143Z,13.55
2022-10-22T13:30:34.974Z,13.07
2022-10-22T13:33:42.221Z,13.97
2022-10-22T13:36:45.198Z,14.90
2022-10-22T13:39:48.073Z,15.60
2022-10-22T13:42:51.046Z,13.70
2022-10-22T13:45:55.253Z,14.80
2022-10-22T13:48:59.902Z,14.20
2022-10-22T13:52:03.573Z,15.90
2022-10-22T13:55:26.772Z,15.02
2022-10-22T13:58:29.685Z,15.15
2022-10-22T14:01:33.030Z,15.50
2022-10-22T14:04:35.936Z,14.90
2022-10-22T14:07:39.608Z,15.10
2022-10-22T14:10:42.837Z,13.23
2022-10-22T14:13:45.740Z,14.40
2022-10-22T14:16:48.645Z,12.53
2022-10-22T14:19:51.549Z,12.23
2022-10-22T14:22:54.562Z,12.52
2022-10-22T14:25:57.789Z,13.73
2022-10-22T14:29:10.227Z,14.25
2022-10-22T14:32:15.268Z,14.67
2022-10-22T14:35:22.114Z,38.97
2022-10-22T14:38:25.021Z,50.20
2022-10-22T14:41:28.018Z,26.67
2022-10-22T14:44:30.918Z,22.23
2022-10-22T14:47:33.931Z,19.87
2022-10-22T14:50:36.887Z,31.07
2022-10-22T14:53:39.809Z,22.77
2022-10-22T14:56:42.723Z,23.48
2022-10-22T14:59:45.684Z,21.42
2022-10-22T15:02:48.665Z,20.47
2022-10-22T15:05:53.690Z,20.93
2022-10-22T15:08:56.607Z,21.60
2022-10-22T15:11:59.510Z,21.17
2022-10-22T15:15:02.672Z,20.73
2022-10-22T15:18:05.584Z,22.97
2022-10-22T15:21:13.581Z,47.67
2022-10-22T15:24:16.534Z,24.23
2022-10-22T15:27:19.469Z,26.85
2022-10-22T15:30:22.359Z,27.73
2022-10-22T15:33:25.426Z,20.33
2022-10-22T15:36:28.333Z,18.13
2022-10-22T15:39:31.427Z,18.08
2022-10-22T15:42:34.373Z,19.10
2022-10-22T15:45:37.293Z,21.52
2022-10-22T15:48:40.610Z,20.73
2022-10-22T15:51:43.553Z,18.67
2022-10-22T15:54:46.504Z,17.67
2022-10-22T15:57:54.759Z,13.55
2022-10-22T16:01:11.298Z,14.63
2022-10-22T16:04:14.363Z,15.30
2022-10-22T16:07:19.772Z,16.13
2022-10-22T16:10:25.416Z,14.73
2022-10-22T16:13:28.398Z,16.73
2022-10-22T16:16:32.638Z,15.73
2022-10-22T16:19:35.596Z,16.30
2022-10-22T16:22:38.580Z,16.97
2022-10-22T16:25:42.096Z,14.57
2022-10-22T16:28:45.631Z,17.13
2022-10-22T16:31:48.651Z,17.55
2022-10-22T16:34:51.553Z,18.40
2022-10-22T16:37:54.433Z,20.50
2022-10-22T16:41:07.916Z,20.88
2022-10-22T16:44:10.877Z,19.65
2022-10-22T16:47:13.760Z,18.85
2022-10-22T16:50:16.740Z,17.20
2022-10-22T16:53:19.940Z,18.73
2022-10-22T16:56:23.078Z,24.70
2022-10-22T16:59:26.058Z,22.48
2022-10-22T17:02:28.964Z,21.10
2022-10-22T17:05:31.869Z,19.77
2022-10-22T17:08:35.458Z,18.63
2022-10-22T17:11:40.259Z,20.27
2022-10-22T17:14:45.452Z,20.50
2022-10-22T17:17:53.650Z,18.95
2022-10-22T17:20:58.342Z,18.90
2022-10-22T17:24:01.243Z,19.27
2022-10-22T17:30:23.265Z,18.27
2022-10-22T17:33:29.485Z,19.20
2022-10-22T17:36:35.653Z,17.87
2022-10-22T17:39:39.101Z,17.83
2022-10-22T17:42:42.143Z,18.50
2022-10-22T17:45:45.295Z,19.25
2022-10-22T17:48:55.436Z,19.30
2022-10-22T17:51:58.412Z,19.50
2022-10-22T17:55:01.645Z,20.17
2022-10-22T17:58:04.611Z,21.15
2022-10-22T18:01:07.622Z,21.63
2022-10-22T18:04:13.279Z,22.35
2022-10-22T18:07:16.200Z,22.27
2022-10-22T18:10:19.114Z,21.77
2022-10-22T18:13:22.062Z,22.30
2022-10-22T18:16:25.531Z,21.30
2022-10-22T18:19:28.778Z,22.45
2022-10-22T18:22:32.284Z,21.67
2022-10-22T18:25:38.598Z,23.07
2022-10-22T18:28:41.534Z,23.65
2022-10-22T18:31:44.744Z,23.67
2022-10-22T18:34:48.188Z,22.48
2022-10-22T18:37:51.955Z,22.93
2022-10-22T18:40:54.837Z,19.80
2022-10-22T18:44:01.916Z,21.10
2022-10-22T18:47:06.067Z,21.70
2022-10-22T18:50:09.733Z,21.27
2022-10-22T18:53:13.160Z,22.27
2022-10-22T18:56:17.205Z,23.13
2022-10-22T18:59:24.933Z,24.52
2022-10-22T19:02:29.658Z,21.73
2022-10-22T19:05:32.597Z,23.75
2022-10-22T19:08:36.005Z,22.70
2022-10-22T19:11:39.024Z,17.20
2022-10-22T19:14:42.673Z,16.67
2022-10-22T19:17:45.761Z,16.48
2022-10-22T19:20:51.462Z,23.77
2022-10-22T19:24:00.680Z,22.87
2022-10-22T19:27:03.641Z,17.63
2022-10-22T19:30:07.316Z,19.02
2022-10-22T19:33:10.202Z,14.70
2022-10-22T19:36:14.102Z,13.70
2022-10-22T19:39:17.401Z,14.10
2022-10-22T19:42:20.852Z,14.73
2022-10-22T19:45:23.762Z,14.73
2022-10-22T19:48:28.686Z,15.10
2022-10-22T19:51:33.377Z,14.98
2022-10-22T19:54:40.790Z,15.40
2022-10-22T19:57:44.278Z,16.57
2022-10-22T20:00:47.524Z,16.63
2022-10-22T20:03:50.878Z,16.45
2022-10-22T20:06:54.288Z,17.67
2022-10-22T20:09:57.299Z,17.00
2022-10-22T20:13:00.213Z,17.53
2022-10-22T20:16:03.275Z,18.23
2022-10-22T20:19:07.616Z,18.85
2022-10-22T20:22:12.609Z,17.50
2022-10-22T20:25:18.007Z,18.77
2022-10-22T20:28:20.900Z,16.47
2022-10-22T20:31:25.014Z,18.17
2022-10-22T20:34:27.908Z,19.88
2022-10-22T20:37:30.799Z,19.38
2022-10-22T20:40:33.852Z,19.37
2022-10-22T20:43:36.765Z,18.53
2022-10-22T20:46:39.660Z,19.30
2022-10-22T20:49:42.581Z,19.25
2022-10-22T20:52:45.486Z,18.92
2022-10-22T20:55:49.094Z,19.77
2022-10-22T20:58:57.304Z,19.00
2022-10-22T21:02:00.948Z,20.05
2022-10-22T21:05:03.898Z,19.55
2022-10-22T21:08:06.903Z,21.35
2022-10-22T21:11:09.831Z,21.13
2022-10-22T21:14:13.812Z,20.63
2022-10-22T21:17:16.674Z,21.27
2022-10-22T21:20:22.336Z,20.33
2022-10-22T21:23:27.604Z,21.20
2022-10-22T21:26:30.477Z,20.73
2022-10-22T21:29:33.384Z,20.97
2022-10-22T21:32:36.294Z,22.33
2022-10-22T21:35:39.164Z,23.92
2022-10-22T21:38:43.612Z,22.25
2022-10-22T21:41:46.513Z,21.87
2022-10-22T21:44:49.422Z,19.07
2022-10-22T21:47:52.300Z,21.65
2022-10-22T21:50:55.176Z,20.13
2022-10-22T21:53:58.121Z,20.33
2022-10-22T21:57:01.009Z,21.93
2022-10-22T22:00:06.324Z,22.73
2022-10-22T22:03:09.370Z,21.38
2022-10-22T22:06:12.545Z,22.10
2022-10-22T22:09:15.582Z,21.33
2022-10-22T22:12:18.992Z,19.90
2022-10-22T22:15:21.935Z,21.27
2022-10-22T22:18:24.843Z,20.40
2022-10-22T22:21:28.138Z,20.85
2022-10-22T22:24:31.041Z,22.70
2022-10-22T22:27:34.246Z,21.43
2022-10-22T22:30:37.147Z,21.77
2022-10-22T22:33:40.057Z,21.02
2022-10-22T22:36:45.487Z,21.48
2022-10-22T22:39:48.381Z,21.17
2022-10-22T22:42:51.258Z,19.90
2022-10-22T22:46:04.811Z,20.47
2022-10-22T22:49:07.836Z,21.02
2022-10-22T22:52:10.894Z,21.55
2022-10-22T22:55:13.841Z,20.85
2022-10-22T22:58:17.080Z,22.97
2022-10-22T23:01:27.486Z,21.60
2022-10-22T23:04:30.496Z,22.73
2022-10-22T23:07:33.389Z,22.90
2022-10-22T23:10:36.270Z,21.25
2022-10-22T23:13:39.633Z,20.97
2022-10-22T23:16:46.096Z,22.00
2022-10-22T23:19:48.996Z,22.27
2022-10-22T23:22:51.895Z,21.38
2022-10-22T23:25:55.974Z,20.70
2022-10-22T23:29:04.490Z,22.07
2022-10-22T23:32:10.757Z,22.37
2022-10-22T23:35:13.653Z,24.25
2022-10-22T23:38:16.613Z,24.67
2022-10-22T23:41:19.554Z,25.45
2022-10-22T23:44:23.024Z,24.53
2022-10-22T23:47:25.948Z,23.93
2022-10-22T23:50:28.806Z,22.98
2022-10-22T23:53:31.698Z,20.92
2022-10-22T23:56:36.324Z,20.73
2022-10-22T23:59:39.312Z,19.47
